Time;durP1;ratioP1;P1;durP2;ratioP2;P2;SDS_P1;SDS_P2;PMS_P1;PMS_P2;Temp;Humidity;BMP_temperature;BMP_pressure;BME280_temperature;BME280_humidity;BME280_pressure;Samples;Min_cycle;Max_cycle;Signal;HPM_P1;HPM_P2
2021/10/31 00:01:15;;;;;;;8.73;6.03;;;7.10;87.20;;;;;;5026158;28;20212;-72
2021/10/31 00:03:41;;;;;;;8.23;6.20;;;7.10;87.10;;;;;;5027775;28;20192;-72
2021/10/31 00:06:07;;;;;;;11.50;5.77;;;7.10;87.00;;;;;;5024602;28;20207;-72
2021/10/31 00:08:33;;;;;;;8.07;5.83;;;7.00;86.90;;;;;;5027030;28;20192;-72
2021/10/31 00:10:59;;;;;;;6.60;5.43;;;7.00;86.80;;;;;;5037744;28;20587;-72
2021/10/31 00:13:25;;;;;;;6.67;5.80;;;7.00;87.10;;;;;;5035295;28;20628;-72
2021/10/31 00:15:51;;;;;;;9.23;5.77;;;6.90;87.10;;;;;;5032617;28;20193;-72
2021/10/31 00:18:17;;;;;;;7.93;5.87;;;7.00;87.20;;;;;;5031165;28;20189;-72
2021/10/31 00:20:43;;;;;;;9.50;5.07;;;7.00;87.00;;;;;;5026798;28;20222;-72
2021/10/31 00:23:09;;;;;;;7.57;5.97;;;7.00;87.20;;;;;;5034324;28;20196;-72
2021/10/31 00:25:35;;;;;;;6.90;5.10;;;7.00;87.10;;;;;;5036887;28;20199;-72
2021/10/31 00:28:01;;;;;;;7.27;5.47;;;7.10;87.00;;;;;;5035805;28;20282;-72
2021/10/31 00:30:27;;;;;;;5.00;4.50;;;7.10;87.10;;;;;;5029855;28;20205;-72
2021/10/31 00:32:53;;;;;;;10.87;6.30;;;7.10;87.00;;;;;;5026266;28;20184;-72
2021/10/31 00:35:19;;;;;;;7.27;5.63;;;7.10;86.90;;;;;;5034467;28;20227;-71
2021/10/31 00:37:44;;;;;;;11.83;5.73;;;7.10;87.50;;;;;;5029449;28;20274;-71
2021/10/31 00:40:11;;;;;;;7.73;5.57;;;7.10;87.30;;;;;;5026450;28;20211;-72
2021/10/31 00:42:37;;;;;;;8.03;5.40;;;7.10;87.20;;;;;;5033694;28;20237;-72
2021/10/31 00:45:04;;;;;;;11.07;6.60;;;7.00;87.20;;;;;;5035398;28;20185;-72
2021/10/31 00:47:30;;;;;;;6.43;5.47;;;7.00;87.00;;;;;;5032907;28;20181;-72
2021/10/31 00:49:56;;;;;;;10.87;6.20;;;7.00;87.00;;;;;;5035694;28;20180;-72
2021/10/31 00:52:21;;;;;;;10.57;5.80;;;7.00;87.10;;;;;;5029297;28;20804;-72
2021/10/31 00:54:49;;;;;;;7.50;6.20;;;7.00;87.10;;;;;;5037557;28;20196;-73
2021/10/31 00:57:15;;;;;;;6.30;5.13;;;6.90;86.90;;;;;;5034717;28;20594;-74
2021/10/31 00:59:40;;;;;;;9.03;5.87;;;6.90;86.80;;;;;;5016007;28;20227;-73
2021/10/31 01:02:11;;;;;;;7.87;5.83;;;6.80;87.30;;;;;;5032753;28;20266;-72
2021/10/31 01:04:40;;;;;;;6.60;5.33;;;6.70;87.20;;;;;;5029577;28;20918;-72
2021/10/31 01:07:24;;;;;;;7.03;5.50;;;6.70;87.20;;;;;;5028656;28;20184;-72
2021/10/31 01:09:59;;;;;;;10.73;6.37;;;6.60;86.80;;;;;;5032214;28;20224;-73
2021/10/31 01:12:28;;;;;;;8.87;6.60;;;6.60;87.10;;;;;;5035106;28;20182;-72
2021/10/31 01:15:15;;;;;;;13.57;6.83;;;6.60;87.20;;;;;;5031232;28;20168;-73
2021/10/31 01:17:52;;;;;;;5.83;5.30;;;6.60;87.60;;;;;;5029703;28;20278;-72
2021/10/31 01:20:42;;;;;;;5.90;4.80;;;6.50;87.60;;;;;;5011902;28;20270;-72
2021/10/31 01:23:27;;;;;;;5.10;4.57;;;6.40;87.20;;;;;;5031177;28;20183;-73
2021/10/31 01:26:20;;;;;;;5.57;4.67;;;6.40;87.10;;;;;;5037155;28;20260;-72
2021/10/31 01:29:10;;;;;;;9.03;5.00;;;6.30;87.60;;;;;;5031343;28;20180;-72
2021/10/31 01:31:44;;;;;;;7.33;5.60;;;6.30;87.60;;;;;;5033531;28;20294;-72
2021/10/31 01:34:51;;;;;;;10.73;6.23;;;6.30;88.10;;;;;;5009241;28;20689;-73
2021/10/31 01:37:48;;;;;;;7.10;5.40;;;6.20;87.70;;;;;;5024532;28;20189;-72
2021/10/31 01:40:14;;;;;;;6.23;5.57;;;6.20;87.90;;;;;;5036959;28;20199;-72
2021/10/31 01:43:04;;;;;;;8.00;5.43;;;6.20;88.30;;;;;;5033552;28;20184;-72
2021/10/31 01:46:21;;;;;;;9.23;5.60;;;6.20;88.50;;;;;;5035716;28;20693;-72
2021/10/31 01:49:09;;;;;;;8.33;5.20;;;6.20;88.30;;;;;;4965165;28;20258;-73
2021/10/31 01:51:55;;;;;;;10.53;6.30;;;6.20;88.30;;;;;;4968656;28;20569;-72
2021/10/31 01:54:26;;;;;;;6.50;5.10;;;6.30;88.20;;;;;;4974422;28;20190;-72
2021/10/31 01:56:59;;;;;;;10.13;5.13;;;6.30;88.50;;;;;;4976784;28;20236;-72
2021/10/31 01:59:28;;;;;;;6.80;5.43;;;6.30;88.20;;;;;;4977672;28;20672;-72
2021/10/31 02:01:57;;;;;;;7.97;4.93;;;6.30;88.10;;;;;;4971506;28;20278;-72
2021/10/31 02:04:25;;;;;;;6.57;5.60;;;6.40;87.90;;;;;;4967364;28;20191;-73
2021/10/31 02:06:52;;;;;;;6.17;5.30;;;6.40;88.00;;;;;;4971060;28;20181;-72
2021/10/31 02:09:21;;;;;;;5.13;4.47;;;6.40;88.00;;;;;;4970835;28;20193;-72
2021/10/31 02:11:49;;;;;;;7.20;5.03;;;6.50;87.80;;;;;;4968456;28;20194;-72
2021/10/31 02:14:15;;;;;;;7.67;4.70;;;6.40;87.80;;;;;;4967677;28;20197;-72
2021/10/31 02:16:42;;;;;;;6.33;4.73;;;6.40;87.80;;;;;;4974453;28;20189;-72
2021/10/31 02:19:37;;;;;;;7.33;5.40;;;6.40;87.90;;;;;;4962965;28;20206;-73
2021/10/31 02:22:06;;;;;;;4.57;4.17;;;6.40;87.70;;;;;;4970725;28;20214;-73
2021/10/31 02:24:34;;;;;;;4.87;4.47;;;6.40;87.80;;;;;;5005544;28;20191;-73
2021/10/31 02:26:59;;;;;;;5.23;4.73;;;6.40;87.70;;;;;;5029629;28;20550;-73
2021/10/31 02:29:25;;;;;;;10.57;5.40;;;6.40;87.60;;;;;;5030330;28;20188;-71
2021/10/31 02:31:51;;;;;;;5.43;4.57;;;6.40;87.60;;;;;;5027102;28;20246;-72
2021/10/31 02:34:17;;;;;;;6.70;4.37;;;6.40;87.60;;;;;;5031844;28;20191;-72
2021/10/31 02:36:43;;;;;;;5.77;5.17;;;6.40;87.60;;;;;;5032487;28;20171;-72
2021/10/31 02:39:10;;;;;;;6.10;4.60;;;6.50;87.60;;;;;;5023867;28;20207;-72
2021/10/31 02:41:36;;;;;;;4.90;4.33;;;6.50;87.50;;;;;;5035052;28;20211;-72
2021/10/31 02:44:04;;;;;;;9.13;4.40;;;6.40;87.30;;;;;;5027417;28;20181;-73
2021/10/31 02:46:33;;;;;;;5.43;3.83;;;6.50;87.40;;;;;;5024817;28;20858;-73
2021/10/31 02:49:01;;;;;;;4.17;3.77;;;6.50;87.10;;;;;;5029783;28;20175;-71
2021/10/31 02:51:29;;;;;;;5.20;4.03;;;6.50;87.10;;;;;;5016537;28;20222;-71
2021/10/31 02:54:19;;;;;;;4.00;3.60;;;6.50;86.90;;;;;;5036867;28;20179;-71
2021/10/31 02:57:02;;;;;;;5.03;4.20;;;6.60;86.90;;;;;;4968178;28;20194;-71
2021/10/31 02:59:48;;;;;;;5.00;3.97;;;6.60;86.90;;;;;;4966088;28;20214;-73
2021/10/31 03:02:15;;;;;;;4.67;4.27;;;6.60;86.70;;;;;;4970320;28;20205;-73
2021/10/31 03:04:41;;;;;;;5.23;3.60;;;6.60;87.00;;;;;;4975733;28;20207;-72
2021/10/31 03:07:08;;;;;;;4.90;4.47;;;6.70;87.00;;;;;;4962039;28;20182;-70
2021/10/31 03:09:35;;;;;;;9.93;4.43;;;6.70;86.90;;;;;;4973403;28;20228;-73
2021/10/31 03:12:03;;;;;;;4.93;4.03;;;6.70;86.80;;;;;;4968843;28;20245;-73
2021/10/31 03:14:29;;;;;;;5.23;4.07;;;6.80;86.70;;;;;;4972015;28;20662;-73
2021/10/31 03:16:55;;;;;;;5.43;4.07;;;6.90;86.70;;;;;;4973901;28;20193;-73
2021/10/31 03:19:21;;;;;;;7.17;4.13;;;6.90;86.40;;;;;;4967768;28;20190;-73
2021/10/31 03:21:47;;;;;;;4.30;3.73;;;6.90;86.40;;;;;;4967372;28;20703;-74
2021/10/31 03:24:13;;;;;;;5.13;4.47;;;7.00;86.50;;;;;;4961977;28;20185;-73
2021/10/31 03:26:39;;;;;;;12.80;4.73;;;7.00;86.40;;;;;;4968629;28;20679;-71
2021/10/31 03:29:04;;;;;;;5.50;4.50;;;7.00;86.40;;;;;;4967919;28;20764;-72
2021/10/31 03:31:30;;;;;;;5.97;4.47;;;7.10;86.20;;;;;;4970672;28;20202;-72
2021/10/31 03:33:56;;;;;;;4.47;3.90;;;7.10;86.30;;;;;;4998478;28;20756;-73
2021/10/31 03:36:21;;;;;;;8.90;4.77;;;7.10;86.30;;;;;;5030050;28;20658;-73
2021/10/31 03:38:47;;;;;;;8.80;5.00;;;7.20;86.30;;;;;;5028489;28;20635;-72
2021/10/31 03:41:13;;;;;;;6.40;4.60;;;7.20;86.20;;;;;;5028828;28;20690;-72
2021/10/31 03:43:38;;;;;;;5.47;4.97;;;7.20;86.30;;;;;;5033080;28;20669;-73
2021/10/31 03:46:04;;;;;;;7.27;4.87;;;7.20;86.40;;;;;;5037182;28;20179;-72
2021/10/31 03:48:30;;;;;;;9.13;6.27;;;7.20;86.30;;;;;;5026241;28;20219;-73
2021/10/31 03:50:55;;;;;;;6.70;5.57;;;7.20;86.30;;;;;;5034689;28;20183;-73
2021/10/31 03:53:21;;;;;;;8.33;5.40;;;7.20;86.30;;;;;;5034771;28;20978;-72
2021/10/31 03:55:47;;;;;;;7.30;5.83;;;7.20;86.30;;;;;;5037531;28;20202;-73
2021/10/31 03:58:13;;;;;;;6.67;4.80;;;7.20;86.30;;;;;;5022825;28;20184;-73
2021/10/31 04:00:39;;;;;;;6.03;5.33;;;7.20;86.50;;;;;;5033578;28;20735;-71
2021/10/31 04:03:05;;;;;;;5.27;4.53;;;7.20;86.40;;;;;;5040872;28;20176;-71
2021/10/31 04:05:30;;;;;;;8.47;5.37;;;7.20;86.40;;;;;;5033901;28;20200;-72
2021/10/31 04:07:56;;;;;;;13.17;6.10;;;7.20;86.20;;;;;;5029439;28;20188;-71
2021/10/31 04:10:22;;;;;;;6.43;4.97;;;7.20;86.20;;;;;;5019258;28;20294;-73
2021/10/31 04:12:50;;;;;;;5.43;4.97;;;7.20;86.20;;;;;;5021294;28;20179;-72
2021/10/31 04:15:17;;;;;;;7.77;5.43;;;7.20;86.00;;;;;;5031177;28;20180;-73
2021/10/31 04:17:43;;;;;;;13.60;4.87;;;7.10;86.00;;;;;;5033608;28;20184;-73
2021/10/31 04:20:10;;;;;;;4.93;4.00;;;7.10;86.00;;;;;;5029175;28;20212;-71
2021/10/31 04:22:36;;;;;;;8.03;4.23;;;7.20;86.10;;;;;;5037745;28;20187;-72
2021/10/31 04:25:03;;;;;;;5.27;4.27;;;7.20;86.10;;;;;;5033531;28;20183;-71
2021/10/31 04:27:29;;;;;;;8.27;4.57;;;7.20;86.20;;;;;;5029814;28;20220;-71
2021/10/31 04:29:54;;;;;;;5.80;4.37;;;7.30;86.20;;;;;;5034751;28;20670;-72
2021/10/31 04:32:20;;;;;;;5.23;4.73;;;7.30;86.40;;;;;;5031291;28;20192;-70
2021/10/31 04:34:46;;;;;;;5.50;4.93;;;7.20;86.30;;;;;;5034875;28;20270;-71
2021/10/31 04:37:12;;;;;;;6.67;5.27;;;7.20;86.40;;;;;;5032618;28;20180;-71
2021/10/31 04:39:41;;;;;;;6.30;4.63;;;7.20;86.30;;;;;;5037770;28;20176;-71
2021/10/31 04:42:08;;;;;;;5.77;4.50;;;7.20;86.40;;;;;;5035868;28;20171;-72
2021/10/31 04:44:34;;;;;;;5.53;4.67;;;7.10;86.20;;;;;;5026999;28;20184;-72
2021/10/31 04:47:00;;;;;;;8.60;4.93;;;7.10;86.30;;;;;;5027950;28;20183;-72
2021/10/31 04:49:26;;;;;;;6.37;4.60;;;7.10;86.40;;;;;;5040189;28;20641;-72
2021/10/31 04:51:52;;;;;;;6.77;4.53;;;7.10;86.30;;;;;;5030056;28;20207;-72
2021/10/31 04:54:17;;;;;;;7.73;4.70;;;7.10;86.40;;;;;;5033096;28;20177;-71
2021/10/31 04:56:43;;;;;;;7.37;4.87;;;7.10;86.30;;;;;;5041512;28;20191;-72
2021/10/31 04:59:09;;;;;;;4.67;4.23;;;7.20;86.40;;;;;;5030433;28;20275;-71
2021/10/31 05:01:35;;;;;;;5.00;4.50;;;7.20;86.50;;;;;;5024958;28;20290;-71
2021/10/31 05:04:01;;;;;;;6.97;4.87;;;7.20;86.40;;;;;;5033469;28;20247;-70
2021/10/31 05:06:26;;;;;;;6.40;4.93;;;7.20;86.40;;;;;;5015547;28;20223;-70
2021/10/31 05:08:52;;;;;;;8.43;4.83;;;7.20;86.40;;;;;;5032159;28;20657;-70
2021/10/31 05:11:18;;;;;;;5.13;4.53;;;7.20;86.30;;;;;;5014463;28;20195;-71
2021/10/31 05:13:44;;;;;;;10.53;4.70;;;7.20;86.40;;;;;;5029318;28;20176;-70
2021/10/31 05:16:10;;;;;;;6.13;4.63;;;7.20;86.20;;;;;;5034773;28;20272;-70
2021/10/31 05:18:36;;;;;;;6.43;4.87;;;7.30;86.10;;;;;;5028811;28;20338;-70
2021/10/31 05:21:02;;;;;;;9.07;5.20;;;7.30;86.50;;;;;;5036252;28;20219;-71
2021/10/31 05:23:28;;;;;;;5.80;5.20;;;7.30;86.20;;;;;;5034296;28;20180;-70
2021/10/31 05:25:54;;;;;;;7.63;4.93;;;7.30;86.60;;;;;;5034925;28;20599;-72
2021/10/31 05:28:20;;;;;;;7.17;5.07;;;7.30;86.50;;;;;;5036989;28;20305;-71
2021/10/31 05:30:46;;;;;;;8.33;5.33;;;7.30;86.40;;;;;;5036242;28;20240;-71
2021/10/31 05:33:12;;;;;;;5.77;4.70;;;7.40;86.40;;;;;;5031196;28;20199;-71
2021/10/31 05:35:38;;;;;;;6.30;4.83;;;7.40;86.20;;;;;;5031323;28;20197;-72
2021/10/31 05:38:05;;;;;;;6.97;4.83;;;7.40;86.50;;;;;;5033223;28;20179;-71
2021/10/31 05:40:32;;;;;;;7.07;5.17;;;7.50;86.50;;;;;;5031028;28;20716;-72
2021/10/31 05:42:57;;;;;;;10.00;4.93;;;7.50;86.30;;;;;;5032495;28;20192;-72
2021/10/31 05:45:24;;;;;;;5.43;4.87;;;7.60;86.10;;;;;;5030847;28;20181;-72
2021/10/31 05:47:52;;;;;;;6.43;5.17;;;7.60;86.10;;;;;;5035148;28;20220;-72
2021/10/31 05:50:18;;;;;;;5.07;4.33;;;7.60;85.70;;;;;;5037178;28;20184;-72
2021/10/31 05:52:45;;;;;;;5.20;4.70;;;7.60;85.40;;;;;;5033488;28;20662;-72
2021/10/31 05:55:12;;;;;;;8.47;5.67;;;7.50;85.30;;;;;;5034204;28;20180;-71
2021/10/31 05:57:38;;;;;;;7.30;5.23;;;7.50;85.40;;;;;;5030535;28;20192;-71
2021/10/31 06:00:07;;;;;;;6.03;4.40;;;7.40;85.30;;;;;;5031088;28;20203;-71
2021/10/31 06:02:33;;;;;;;7.67;4.93;;;7.40;85.50;;;;;;5034324;28;20180;-71
2021/10/31 06:04:59;;;;;;;7.67;5.40;;;7.50;85.30;;;;;;5033938;28;22088;-72
2021/10/31 06:07:26;;;;;;;7.40;5.10;;;7.50;85.40;;;;;;5033605;28;20180;-71
2021/10/31 06:09:52;;;;;;;6.73;5.33;;;7.50;85.30;;;;;;5035130;28;20184;-71
2021/10/31 06:12:18;;;;;;;5.03;4.57;;;7.50;85.40;;;;;;5034148;28;20680;-71
2021/10/31 06:14:44;;;;;;;7.27;5.17;;;7.50;85.50;;;;;;5036296;28;20177;-73
2021/10/31 06:17:10;;;;;;;8.00;5.40;;;7.60;85.30;;;;;;5030705;28;20176;-70
2021/10/31 06:19:36;;;;;;;6.03;4.87;;;7.60;85.40;;;;;;5033866;28;20211;-73
2021/10/31 06:22:03;;;;;;;6.03;4.83;;;7.60;85.30;;;;;;5035374;28;20223;-73
2021/10/31 06:24:29;;;;;;;5.73;5.13;;;7.70;85.00;;;;;;5038334;28;20695;-70
2021/10/31 06:26:55;;;;;;;5.90;5.30;;;7.80;85.30;;;;;;5027872;28;20196;-73
2021/10/31 06:29:21;;;;;;;7.70;5.73;;;7.80;84.90;;;;;;5035251;28;20677;-71
2021/10/31 06:31:47;;;;;;;5.97;4.97;;;7.90;84.70;;;;;;5026366;28;20189;-71
2021/10/31 06:34:13;;;;;;;5.07;4.57;;;7.90;84.60;;;;;;5037156;28;20227;-72
2021/10/31 06:36:38;;;;;;;11.00;5.67;;;8.00;84.60;;;;;;5011578;28;20201;-72
2021/10/31 06:39:06;;;;;;;6.67;5.40;;;8.00;84.20;;;;;;5033948;28;20237;-72
2021/10/31 06:41:32;;;;;;;9.33;5.97;;;8.10;84.30;;;;;;5034267;28;20255;-72
2021/10/31 06:43:58;;;;;;;7.47;6.07;;;8.10;84.10;;;;;;5036203;28;20692;-73
2021/10/31 06:46:25;;;;;;;9.53;5.67;;;8.20;84.00;;;;;;5009162;28;20184;-72
2021/10/31 06:48:52;;;;;;;10.07;5.63;;;8.20;84.00;;;;;;5014914;28;20199;-72
2021/10/31 06:51:21;;;;;;;9.07;6.43;;;8.40;83.80;;;;;;5016548;28;20199;-73
2021/10/31 06:53:48;;;;;;;9.67;6.17;;;8.50;83.50;;;;;;5029129;28;20185;-72
2021/10/31 06:56:14;;;;;;;7.33;5.83;;;8.60;83.30;;;;;;5038979;28;20333;-73
2021/10/31 06:58:40;;;;;;;7.27;5.67;;;8.70;82.90;;;;;;5026141;28;20188;-72
2021/10/31 07:01:06;;;;;;;6.93;6.23;;;8.80;82.80;;;;;;5029137;28;20223;-74
2021/10/31 07:03:32;;;;;;;8.73;6.53;;;8.90;82.80;;;;;;5032222;28;20184;-73
2021/10/31 07:05:59;;;;;;;8.50;5.87;;;9.10;82.60;;;;;;5032157;28;20641;-70
2021/10/31 07:08:25;;;;;;;9.33;6.27;;;9.20;82.20;;;;;;5030961;28;20216;-71
2021/10/31 07:10:50;;;;;;;11.17;6.73;;;9.30;82.00;;;;;;5030853;28;20709;-71
2021/10/31 07:13:16;;;;;;;9.87;6.63;;;9.40;82.00;;;;;;5029559;28;20184;-71
2021/10/31 07:15:42;;;;;;;8.80;7.03;;;9.60;81.80;;;;;;5026706;28;20180;-71
2021/10/31 07:18:08;;;;;;;12.73;7.80;;;9.70;81.60;;;;;;5030710;28;20192;-72
2021/10/31 07:20:34;;;;;;;9.60;7.77;;;10.00;82.20;;;;;;5029938;28;20219;-71
2021/10/31 07:23:00;;;;;;;11.93;8.30;;;10.30;81.60;;;;;;5030506;28;20271;-72
2021/10/31 07:25:27;;;;;;;10.43;7.77;;;10.60;80.60;;;;;;5030170;28;20654;-71
2021/10/31 07:27:54;;;;;;;12.43;9.17;;;10.90;79.80;;;;;;5030006;28;20278;-79
2021/10/31 07:30:21;;;;;;;18.43;9.37;;;11.10;79.20;;;;;;5012733;28;20188;-74
2021/10/31 07:32:57;;;;;;;18.25;9.32;;;11.40;79.10;;;;;;5029351;28;20180;-76
2021/10/31 07:35:24;;;;;;;13.15;8.90;;;11.70;78.10;;;;;;5032376;28;20253;-76
2021/10/31 07:37:50;;;;;;;15.57;10.07;;;12.20;78.90;;;;;;5032349;28;20690;-73
2021/10/31 07:40:16;;;;;;;14.57;10.32;;;12.70;77.20;;;;;;5028653;28;20612;-74
2021/10/31 07:42:42;;;;;;;14.27;10.23;;;13.20;76.80;;;;;;5011708;28;20180;-74
2021/10/31 07:45:08;;;;;;;17.30;10.82;;;13.80;76.60;;;;;;5030075;28;20193;-73
2021/10/31 07:47:34;;;;;;;13.77;10.68;;;14.40;75.10;;;;;;5026856;28;20187;-74
2021/10/31 07:49:59;;;;;;;16.48;10.95;;;15.00;73.70;;;;;;5026451;28;20184;-74
2021/10/31 07:52:25;;;;;;;14.88;10.43;;;15.50;71.70;;;;;;5032275;28;20188;-73
2021/10/31 07:54:51;;;;;;;16.45;10.57;;;15.80;70.10;;;;;;5030147;28;20238;-74
2021/10/31 07:57:19;;;;;;;15.95;10.85;;;15.90;68.80;;;;;;5032849;28;20188;-71
2021/10/31 07:59:45;;;;;;;19.80;10.48;;;16.00;68.80;;;;;;5029800;28;20188;-73
2021/10/31 08:02:12;;;;;;;14.52;10.23;;;16.00;68.50;;;;;;5010950;28;20199;-75
2021/10/31 08:04:38;;;;;;;13.30;10.32;;;16.00;68.30;;;;;;5024506;28;20236;-74
2021/10/31 08:07:04;;;;;;;16.73;10.98;;;16.00;68.30;;;;;;5027471;28;20175;-74
2021/10/31 08:09:30;;;;;;;15.13;10.88;;;15.90;68.10;;;;;;5023098;28;20658;-71
2021/10/31 08:11:55;;;;;;;14.73;11.00;;;15.80;68.40;;;;;;5026022;28;20191;-73
2021/10/31 08:14:21;;;;;;;17.02;11.57;;;15.70;68.80;;;;;;5024864;28;20184;-70
2021/10/31 08:16:47;;;;;;;16.27;12.50;;;15.50;68.90;;;;;;5027267;28;20268;-75
2021/10/31 08:19:12;;;;;;;17.75;13.10;;;15.60;69.20;;;;;;5024353;28;20282;-76
2021/10/31 08:21:39;;;;;;;19.60;13.07;;;15.70;69.10;;;;;;5006536;28;20217;-74
2021/10/31 08:24:06;;;;;;;18.67;12.85;;;15.80;69.00;;;;;;5014027;28;20273;-75
2021/10/31 08:26:32;;;;;;;16.15;11.48;;;15.90;68.50;;;;;;5026434;28;20187;-75
2021/10/31 08:29:00;;;;;;;20.00;12.88;;;16.10;68.60;;;;;;5027455;28;20710;-74
2021/10/31 08:31:30;;;;;;;18.15;11.65;;;16.30;68.10;;;;;;5028250;28;20188;-73
2021/10/31 08:33:58;;;;;;;13.38;10.50;;;16.60;68.10;;;;;;5028934;28;20185;-74
2021/10/31 08:36:25;;;;;;;17.83;13.05;;;17.10;68.70;;;;;;5032987;28;20184;-74
2021/10/31 08:38:51;;;;;;;20.75;13.95;;;17.70;67.60;;;;;;5031450;28;21023;-74
2021/10/31 08:41:23;;;;;;;19.00;12.30;;;18.10;66.10;;;;;;5032894;28;20215;-74
2021/10/31 08:43:54;;;;;;;14.25;11.40;;;18.60;66.10;;;;;;5027125;28;20237;-75
2021/10/31 08:46:20;;;;;;;13.45;10.30;;;19.30;64.80;;;;;;5024887;28;20261;-76
2021/10/31 08:48:47;;;;;;;18.60;11.98;;;19.70;63.90;;;;;;5032258;28;20192;-74
2021/10/31 08:51:13;;;;;;;19.85;12.98;;;20.20;62.90;;;;;;5028417;28;20184;-74
2021/10/31 08:53:39;;;;;;;18.23;11.52;;;20.50;62.40;;;;;;5033530;28;20238;-73
2021/10/31 08:56:09;;;;;;;14.85;11.07;;;20.70;61.50;;;;;;5033630;28;20657;-74
2021/10/31 08:58:35;;;;;;;12.55;10.05;;;20.70;61.00;;;;;;5027270;28;20221;-74
2021/10/31 09:01:01;;;;;;;11.40;8.20;;;20.50;61.10;;;;;;5033396;28;20252;-74
2021/10/31 09:03:26;;;;;;;11.27;9.07;;;20.30;61.10;;;;;;5032327;28;20173;-73
2021/10/31 09:05:52;;;;;;;9.55;8.23;;;20.10;61.10;;;;;;5037556;28;20206;-75
2021/10/31 09:08:18;;;;;;;12.80;9.00;;;19.90;61.30;;;;;;5029468;28;20191;-74
2021/10/31 09:10:44;;;;;;;9.15;7.95;;;19.80;61.70;;;;;;5027517;28;20191;-76
2021/10/31 09:13:10;;;;;;;15.95;9.60;;;19.80;62.20;;;;;;5032218;28;20642;-76
2021/10/31 09:15:36;;;;;;;11.70;8.63;;;20.00;62.20;;;;;;5024827;28;20188;-72
2021/10/31 09:18:03;;;;;;;9.38;8.40;;;20.40;61.60;;;;;;5029399;28;20168;-73
2021/10/31 09:20:30;;;;;;;9.05;8.00;;;21.00;60.90;;;;;;5022844;28;20590;-73
2021/10/31 09:23:00;;;;;;;8.95;7.65;;;21.60;60.30;;;;;;5033469;28;20206;-73
2021/10/31 09:25:28;;;;;;;9.45;8.55;;;22.30;59.80;;;;;;5005227;28;20311;-76
2021/10/31 09:27:55;;;;;;;9.85;8.07;;;23.00;58.50;;;;;;5026739;28;20191;-74
2021/10/31 09:30:26;;;;;;;14.32;8.75;;;23.40;57.00;;;;;;5022853;28;20187;-74
2021/10/31 09:32:52;;;;;;;9.98;8.70;;;23.50;55.70;;;;;;5025236;28;20195;-74
2021/10/31 09:35:22;;;;;;;9.93;8.95;;;22.70;56.30;;;;;;5025626;28;20196;-73
2021/10/31 09:37:51;;;;;;;8.55;7.75;;;22.00;56.80;;;;;;5027264;28;20184;-71
2021/10/31 09:40:17;;;;;;;11.25;8.95;;;22.10;57.60;;;;;;5029885;28;20210;-70
2021/10/31 09:42:44;;;;;;;12.15;7.97;;;22.30;57.80;;;;;;5021473;28;20182;-73
2021/10/31 09:45:11;;;;;;;8.43;7.55;;;22.50;56.70;;;;;;5021754;28;22293;-72
2021/10/31 09:47:37;;;;;;;8.52;7.50;;;22.50;54.30;;;;;;5022269;28;20176;-73
2021/10/31 09:50:03;;;;;;;7.93;7.18;;;22.00;55.20;;;;;;5025355;28;20785;-73
2021/10/31 09:52:29;;;;;;;7.60;6.90;;;21.70;56.00;;;;;;5019929;28;20188;-72
2021/10/31 09:54:56;;;;;;;7.28;6.68;;;21.20;56.20;;;;;;5027025;28;20998;-73
2021/10/31 09:57:23;;;;;;;9.77;7.63;;;20.80;57.00;;;;;;5025323;28;20189;-73
2021/10/31 09:59:56;;;;;;;42.67;11.23;;;20.30;57.50;;;;;;5021761;28;21343;-73
2021/10/31 10:05:30;;;;;;;7.15;6.45;;;19.70;57.80;;;;;;5002869;28;20231;-75
2021/10/31 10:08:08;;;;;;;8.45;6.82;;;19.30;58.00;;;;;;5009079;28;20734;-73
2021/10/31 10:10:47;;;;;;;9.82;6.55;;;19.00;59.30;;;;;;5002474;28;20251;-71
2021/10/31 10:13:26;;;;;;;8.70;6.97;;;18.70;59.00;;;;;;5008324;28;22135;-72
2021/10/31 10:16:12;;;;;;;7.47;6.80;;;18.30;60.00;;;;;;4999885;28;20215;-72
2021/10/31 10:18:38;;;;;;;5.90;5.43;;;17.90;60.80;;;;;;5011525;28;20753;-72
2021/10/31 10:21:26;;;;;;;5.40;5.10;;;17.70;60.20;;;;;;5004057;28;20228;-72
2021/10/31 10:23:57;;;;;;;7.00;5.53;;;17.50;60.10;;;;;;5004640;28;20193;-73
2021/10/31 10:26:27;;;;;;;7.00;6.18;;;17.30;60.90;;;;;;5010096;28;20705;-73
2021/10/31 10:29:18;;;;;;;5.85;5.35;;;17.10;61.60;;;;;;5008963;28;20235;-72
2021/10/31 10:31:57;;;;;;;5.78;4.97;;;16.80;62.30;;;;;;5003775;28;20192;-72
2021/10/31 10:34:48;;;;;;;5.28;4.85;;;16.60;62.90;;;;;;5008753;28;20197;-73
2021/10/31 10:37:39;;;;;;;5.20;4.90;;;16.40;63.00;;;;;;5008684;28;20263;-73
2021/10/31 10:40:05;;;;;;;4.95;4.65;;;16.30;63.40;;;;;;5018509;28;20188;-73
2021/10/31 10:42:32;;;;;;;5.93;5.43;;;16.20;63.20;;;;;;5028224;28;20200;-73
2021/10/31 10:45:05;;;;;;;5.90;5.30;;;16.10;63.20;;;;;;5030030;28;20448;-72
2021/10/31 10:47:41;;;;;;;5.72;5.38;;;15.90;62.40;;;;;;5027013;28;21220;-72
2021/10/31 10:50:17;;;;;;;6.00;5.60;;;15.60;63.40;;;;;;5030716;28;20739;-72
2021/10/31 10:52:44;;;;;;;5.85;5.25;;;15.30;63.40;;;;;;5012166;28;20196;-73
2021/10/31 10:55:14;;;;;;;5.43;5.05;;;15.00;63.70;;;;;;5012082;28;20192;-73
2021/10/31 10:57:57;;;;;;;5.13;4.80;;;14.90;63.90;;;;;;5012153;28;20215;-73
2021/10/31 11:00:37;;;;;;;6.13;5.63;;;14.90;64.20;;;;;;5031097;28;20205;-73
2021/10/31 11:03:04;;;;;;;6.43;5.93;;;14.90;64.50;;;;;;5027398;28;20268;-72
2021/10/31 11:05:31;;;;;;;5.85;5.45;;;14.80;64.70;;;;;;5028292;28;20183;-72
2021/10/31 11:07:59;;;;;;;5.18;4.78;;;14.80;64.60;;;;;;5023476;28;20180;-72
2021/10/31 11:10:30;;;;;;;7.00;5.75;;;15.00;64.40;;;;;;5001493;28;20192;-73
2021/10/31 11:12:59;;;;;;;6.00;5.50;;;15.00;64.50;;;;;;5024056;28;20613;-72
2021/10/31 11:15:28;;;;;;;5.05;4.75;;;15.20;64.80;;;;;;5022501;28;21004;-72
2021/10/31 11:17:56;;;;;;;5.75;5.25;;;15.30;64.20;;;;;;5025903;28;20271;-74
2021/10/31 11:20:25;;;;;;;4.60;4.25;;;15.40;63.80;;;;;;5028525;28;20576;-73
2021/10/31 11:23:01;;;;;;;5.13;4.78;;;15.30;64.00;;;;;;5028910;28;20184;-72
2021/10/31 11:25:29;;;;;;;4.65;4.38;;;15.20;64.10;;;;;;5008653;28;20269;-70
2021/10/31 11:27:57;;;;;;;4.72;4.05;;;15.10;64.40;;;;;;5022840;28;20270;-72
2021/10/31 11:30:24;;;;;;;5.32;4.78;;;15.10;64.10;;;;;;5023549;28;20223;-73
2021/10/31 11:32:51;;;;;;;4.55;4.20;;;15.20;64.10;;;;;;4994247;28;20328;-73
2021/10/31 11:35:19;;;;;;;4.28;4.07;;;15.30;63.90;;;;;;4990291;28;20188;-72
2021/10/31 11:38:03;;;;;;;5.22;4.72;;;15.30;64.00;;;;;;4993513;28;20660;-71
2021/10/31 11:40:32;;;;;;;4.70;4.30;;;15.50;63.70;;;;;;5011533;28;20212;-73
2021/10/31 11:42:59;;;;;;;4.32;4.07;;;15.60;63.50;;;;;;5031912;28;20184;-72
2021/10/31 11:45:37;;;;;;;5.03;4.63;;;15.70;63.20;;;;;;5026419;28;20638;-74
2021/10/31 11:48:17;;;;;;;4.40;4.10;;;15.90;62.90;;;;;;5017623;28;20587;-73
2021/10/31 11:51:05;;;;;;;4.82;4.53;;;16.10;62.50;;;;;;5030627;28;20184;-72
2021/10/31 11:53:48;;;;;;;4.88;4.47;;;16.10;62.50;;;;;;5025720;28;20188;-73
2021/10/31 11:56:22;;;;;;;4.28;4.00;;;16.20;62.40;;;;;;5021650;28;20184;-73
2021/10/31 11:58:59;;;;;;;4.88;4.57;;;16.30;62.50;;;;;;5032172;28;22007;-72
2021/10/31 12:01:52;;;;;;;5.05;4.65;;;16.30;62.30;;;;;;5034080;28;20239;-71
2021/10/31 12:04:38;;;;;;;5.60;5.20;;;16.40;62.40;;;;;;5008463;28;20207;-73
2021/10/31 12:07:44;;;;;;;5.20;4.65;;;16.40;62.10;;;;;;5033024;28;20273;-73
2021/10/31 12:10:31;;;;;;;4.50;4.10;;;16.50;61.80;;;;;;5028649;28;20180;-73
2021/10/31 12:13:17;;;;;;;4.78;4.50;;;16.50;61.20;;;;;;5027017;28;20179;-74
2021/10/31 12:16:08;;;;;;;4.80;4.47;;;16.40;62.00;;;;;;5015129;28;20688;-74
2021/10/31 12:19:10;;;;;;;4.38;4.07;;;16.50;62.10;;;;;;5031169;28;20181;-73
2021/10/31 12:21:41;;;;;;;4.55;4.25;;;16.80;62.10;;;;;;4972907;28;20260;-73
2021/10/31 12:24:17;;;;;;;4.53;4.32;;;17.00;61.40;;;;;;4964975;28;20645;-72
2021/10/31 12:26:52;;;;;;;4.57;4.28;;;17.30;60.90;;;;;;4971227;28;20198;-73
2021/10/31 12:29:20;;;;;;;4.40;4.10;;;17.60;60.40;;;;;;4970262;28;20197;-72
2021/10/31 12:31:57;;;;;;;4.28;4.07;;;17.90;59.90;;;;;;4970445;28;20194;-73
2021/10/31 12:34:32;;;;;;;4.53;4.10;;;18.20;59.40;;;;;;4968642;28;20221;-74
2021/10/31 12:36:58;;;;;;;4.45;4.00;;;18.70;59.60;;;;;;4966889;28;20190;-72
2021/10/31 12:39:24;;;;;;;4.57;4.18;;;19.40;58.90;;;;;;4969308;28;20369;-72
2021/10/31 12:42:12;;;;;;;3.88;3.70;;;20.10;57.60;;;;;;4969658;28;20785;-72
2021/10/31 12:44:54;;;;;;;4.15;3.80;;;20.70;57.30;;;;;;4968875;28;20182;-74
2021/10/31 12:47:26;;;;;;;4.10;3.83;;;21.20;54.60;;;;;;4969191;28;20659;-78
2021/10/31 12:50:06;;;;;;;4.35;4.07;;;21.50;54.80;;;;;;4970444;28;20178;-76
2021/10/31 12:52:32;;;;;;;3.95;3.85;;;21.50;53.90;;;;;;4976373;28;20280;-75
2021/10/31 12:55:07;;;;;;;4.43;4.22;;;21.40;54.20;;;;;;4975190;28;20266;-75
2021/10/31 12:57:34;;;;;;;3.80;3.60;;;21.40;54.70;;;;;;4980445;28;20201;-77
2021/10/31 13:00:03;;;;;;;4.95;4.53;;;21.30;53.60;;;;;;5033830;28;20709;-78
2021/10/31 13:02:36;;;;;;;4.15;3.92;;;21.20;55.10;;;;;;5036247;28;20207;-75
2021/10/31 13:05:06;;;;;;;4.63;4.32;;;21.30;54.40;;;;;;5038960;28;20188;-78